Time;durP1;ratioP1;P1;durP2;ratioP2;P2;SDS_P1;SDS_P2;PMS_P1;PMS_P2;Temp;Humidity;BMP_temperature;BMP_pressure;BME280_temperature;BME280_humidity;BME280_pressure;Samples;Min_cycle;Max_cycle;Signal;HPM_P1;HPM_P2
2023/12/05 00:02:03;;;;;;;5.47;4.80;;;;;;;19.80;40.96;101140.22;4642514;30;20051;-64
2023/12/05 00:04:30;;;;;;;7.07;5.47;;;;;;;19.81;41.08;101128.53;4635638;30;20458;-66
2023/12/05 00:06:58;;;;;;;8.05;4.82;;;;;;;19.80;41.18;101137.53;4635727;30;20098;-68
2023/12/05 00:09:25;;;;;;;5.90;4.47;;;;;;;19.81;41.04;101141.06;4648555;30;20063;-67
2023/12/05 00:11:53;;;;;;;5.32;4.82;;;;;;;19.79;41.00;101132.31;4636732;30;20065;-68
2023/12/05 00:14:21;;;;;;;5.88;5.28;;;;;;;19.78;40.91;101118.03;4635676;30;20067;-69
2023/12/05 00:16:48;;;;;;;6.00;5.20;;;;;;;19.79;40.88;101132.31;4635243;30;20070;-58
2023/12/05 00:19:15;;;;;;;5.78;4.95;;;;;;;19.77;40.89;101124.38;4636574;30;20129;-61
2023/12/05 00:21:43;;;;;;;5.50;4.20;;;;;;;19.74;41.05;101124.63;4636579;30;20062;-64
2023/12/05 00:24:10;;;;;;;5.40;4.90;;;;;;;19.69;41.30;101127.69;4634870;30;20066;-64
2023/12/05 00:26:38;;;;;;;5.43;4.93;;;;;;;19.65;41.03;101125.41;4635451;30;20531;-60
2023/12/05 00:29:05;;;;;;;5.90;5.30;;;;;;;19.61;40.72;101138.22;4636493;30;20057;-60
2023/12/05 00:31:33;;;;;;;6.00;5.43;;;;;;;19.59;40.88;101131.22;4637195;30;20499;-60
2023/12/05 00:34:00;;;;;;;5.75;5.10;;;;;;;19.55;41.08;101119.88;4634674;30;20059;-60
2023/12/05 00:36:27;;;;;;;6.18;4.97;;;;;;;19.53;41.08;101124.53;4635588;30;20060;-60
2023/12/05 00:38:55;;;;;;;6.78;5.28;;;;;;;19.51;41.18;101115.75;4636474;30;20410;-60
2023/12/05 00:41:25;;;;;;;7.05;5.63;;;;;;;19.49;41.30;101121.25;4636708;30;20054;-60
2023/12/05 00:43:52;;;;;;;8.02;5.20;;;;;;;19.48;41.49;101108.78;4648118;30;20063;-60
2023/12/05 00:46:22;;;;;;;7.03;5.30;;;;;;;19.47;41.35;101112.44;4635740;30;20504;-60
2023/12/05 00:48:49;;;;;;;5.78;4.97;;;;;;;19.46;41.44;101104.53;4636427;30;20051;-60
2023/12/05 00:51:17;;;;;;;6.10;5.47;;;;;;;19.46;41.44;101096.47;4634250;30;20054;-60
2023/12/05 00:53:44;;;;;;;4.97;4.45;;;;;;;19.46;41.44;101091.09;4635139;30;20067;-60
2023/12/05 00:56:12;;;;;;;5.65;5.07;;;;;;;19.45;41.46;101078.66;4635160;30;20066;-64
2023/12/05 00:58:39;;;;;;;6.20;5.57;;;;;;;19.45;41.43;101082.22;4637028;30;20059;-64
2023/12/05 01:01:07;;;;;;;5.32;4.80;;;;;;;19.43;41.49;101085.97;4636373;30;20059;-64
2023/12/05 01:03:35;;;;;;;6.28;5.18;;;;;;;19.42;41.43;101086.97;4635184;30;20404;-65
2023/12/05 01:06:03;;;;;;;6.03;4.97;;;;;;;19.42;41.31;101095.03;4634931;30;20112;-65
2023/12/05 01:08:31;;;;;;;6.35;5.50;;;;;;;19.42;41.46;101086.97;4636435;30;20052;-64
2023/12/05 01:10:59;;;;;;;7.10;5.68;;;;;;;19.40;41.43;101079.03;4635928;30;20066;-64
2023/12/05 01:13:26;;;;;;;6.75;5.50;;;;;;;19.39;41.49;101087.22;4634806;30;20059;-64
2023/12/05 01:15:53;;;;;;;5.82;5.05;;;;;;;19.39;41.32;101082.69;4634783;30;20055;-64
2023/12/05 01:18:21;;;;;;;6.07;5.45;;;;;;;19.38;41.17;101075.63;4636785;30;20062;-64
2023/12/05 01:20:48;;;;;;;8.23;5.55;;;;;;;19.37;41.55;101078.44;4635736;30;20051;-64
2023/12/05 01:23:16;;;;;;;5.82;5.18;;;;;;;19.36;41.65;101077.56;4638250;30;20055;-64
2023/12/05 01:25:43;;;;;;;6.47;5.82;;;;;;;19.35;41.54;101073.19;4634960;30;20059;-60
2023/12/05 01:28:11;;;;;;;6.10;5.40;;;;;;;19.36;41.54;101087.47;4636468;30;20047;-60
2023/12/05 01:30:38;;;;;;;5.75;5.15;;;;;;;19.34;41.46;101090.28;4635460;30;20047;-60
2023/12/05 01:33:05;;;;;;;5.25;4.72;;;;;;;19.35;41.48;101094.66;4634887;30;20059;-60
2023/12/05 01:35:33;;;;;;;5.97;5.38;;;;;;;19.34;41.47;101082.22;4635134;30;20059;-62
2023/12/05 01:38:01;;;;;;;6.10;5.13;;;;;;;19.32;41.58;101078.81;4636650;30;20067;-60
2023/12/05 01:40:28;;;;;;;6.70;5.25;;;;;;;19.32;41.49;101077.94;4635616;30;20047;-60
2023/12/05 01:42:55;;;;;;;7.32;5.70;;;;;;;19.32;41.52;101078.81;4635243;30;20059;-60
2023/12/05 01:45:23;;;;;;;5.95;4.35;;;;;;;19.31;41.50;101089.69;4634135;30;20063;-60
2023/12/05 01:47:50;;;;;;;5.28;4.63;;;;;;;19.30;41.52;101082.59;4636465;30;20523;-60
2023/12/05 01:50:22;;;;;;;5.60;4.90;;;;;;;19.30;41.72;101079.94;4635229;30;20059;-60
2023/12/05 01:52:53;;;;;;;6.00;4.90;;;;;;;19.30;41.53;101079.94;4634709;30;20059;-60
2023/12/05 01:55:21;;;;;;;6.30;5.32;;;;;;;19.28;41.49;101082.72;4630637;30;20066;-60
2023/12/05 01:57:51;;;;;;;5.35;4.80;;;;;;;19.29;41.58;101078.22;4637248;30;20058;-60
2023/12/05 02:00:18;;;;;;;5.78;5.18;;;;;;;19.26;41.47;101072.13;4628846;30;20401;-60
2023/12/05 02:02:48;;;;;;;6.18;5.28;;;;;;;19.26;41.73;101072.13;4634492;30;20055;-60
2023/12/05 02:05:16;;;;;;;5.57;5.00;;;;;;;19.26;41.59;101073.94;4634685;30;20420;-60
2023/12/05 02:07:44;;;;;;;5.18;4.68;;;;;;;19.25;41.63;101066.88;4637873;30;20059;-60
2023/12/05 02:10:11;;;;;;;5.45;4.80;;;;;;;19.25;41.72;101056.16;4634554;30;20411;-60
2023/12/05 02:12:38;;;;;;;5.97;4.80;;;;;;;19.24;41.44;101059.78;4634411;30;20062;-60
2023/12/05 02:15:08;;;;;;;4.97;4.47;;;;;;;19.24;41.49;101057.97;4634558;30;20059;-60
2023/12/05 02:18:01;;;;;;;6.15;4.85;;;;;;;19.24;41.52;101052.63;4637187;30;20054;-65
2023/12/05 02:20:41;;;;;;;5.53;5.00;;;;;;;19.24;41.42;101047.25;4634249;30;20055;-64
2023/12/05 02:23:27;;;;;;;6.72;5.32;;;;;;;19.24;41.38;101041.88;4635608;30;20084;-64
2023/12/05 02:26:28;;;;;;;5.05;4.55;;;;;;;19.23;41.43;101045.53;4628890;30;20488;-64
2023/12/05 02:28:56;;;;;;;5.55;4.78;;;;;;;19.24;41.41;101044.56;4613068;30;20071;-64
2023/12/05 02:31:23;;;;;;;5.50;4.90;;;;;;;19.25;41.47;101042.72;4636981;30;20523;-64
2023/12/05 02:33:51;;;;;;;5.05;4.40;;;;;;;19.22;41.51;101035.78;4634709;30;20531;-64
2023/12/05 02:36:42;;;;;;;4.28;3.85;;;;;;;19.22;41.40;101038.44;4646781;30;20067;-64
2023/12/05 02:39:38;;;;;;;5.13;4.57;;;;;;;19.23;41.44;101036.63;4626958;30;20436;-64
2023/12/05 02:42:11;;;;;;;5.57;5.05;;;;;;;19.22;41.57;101037.59;4634097;30;20054;-64
2023/12/05 02:44:50;;;;;;;5.05;4.45;;;;;;;19.22;41.50;101026.88;4634372;30;20055;-64
2023/12/05 02:47:21;;;;;;;4.93;4.43;;;;;;;19.22;41.54;101016.13;4635751;30;20508;-60
2023/12/05 02:49:50;;;;;;;5.20;4.35;;;;;;;19.21;41.58;101023.34;4634325;30;20051;-60
2023/12/05 02:52:20;;;;;;;5.03;4.28;;;;;;;19.20;41.54;101016.28;4629595;30;20428;-60
2023/12/05 02:54:47;;;;;;;4.78;4.18;;;;;;;19.21;41.62;101015.28;4636315;30;20055;-60
2023/12/05 02:57:15;;;;;;;6.10;4.55;;;;;;;19.20;41.61;101010.91;4635585;30;20071;-64
2023/12/05 02:59:42;;;;;;;5.20;4.65;;;;;;;19.19;41.59;101009.16;4636826;30;20051;-64
2023/12/05 03:02:10;;;;;;;5.05;4.55;;;;;;;19.20;41.74;101007.34;4632369;30;20059;-64
2023/12/05 03:04:42;;;;;;;6.28;5.25;;;;;;;19.19;41.70;101006.50;4639613;30;20063;-64
2023/12/05 03:07:09;;;;;;;8.02;5.03;;;;;;;19.19;41.68;101002.97;4642928;30;20059;-60
2023/12/05 03:09:37;;;;;;;5.30;4.45;;;;;;;19.19;41.53;101001.13;4636747;30;20543;-60
2023/12/05 03:12:05;;;;;;;5.15;4.63;;;;;;;19.19;41.58;100994.91;4636998;30;20490;-60
2023/12/05 03:14:32;;;;;;;5.60;4.47;;;;;;;19.19;41.61;100992.22;4643367;30;20058;-60
2023/12/05 03:16:59;;;;;;;6.15;5.38;;;;;;;19.18;41.65;100990.53;4636961;30;20074;-64
2023/12/05 03:19:27;;;;;;;5.50;4.68;;;;;;;19.17;41.60;100984.31;4636758;30;20078;-64
2023/12/05 03:21:55;;;;;;;6.07;5.40;;;;;;;19.17;41.76;100991.50;4636904;30;20428;-64
2023/12/05 03:24:22;;;;;;;5.78;4.82;;;;;;;19.17;41.62;100991.50;4639569;30;20058;-64
2023/12/05 03:26:50;;;;;;;7.25;5.03;;;;;;;19.16;41.69;100985.31;4630957;30;20107;-60
2023/12/05 03:29:17;;;;;;;4.82;4.40;;;;;;;19.16;41.56;100987.97;4636095;30;20415;-60
2023/12/05 03:31:44;;;;;;;5.57;4.97;;;;;;;19.16;41.69;100987.09;4636754;30;20533;-60
2023/12/05 03:34:12;;;;;;;5.95;4.90;;;;;;;19.16;41.65;100976.38;4639372;30;20059;-60
2023/12/05 03:36:39;;;;;;;7.03;5.88;;;;;;;19.14;41.73;100973.81;4630544;30;20059;-64
2023/12/05 03:39:06;;;;;;;7.22;5.63;;;;;;;19.13;41.52;100972.13;4636773;30;20392;-64
2023/12/05 03:41:35;;;;;;;7.50;5.65;;;;;;;19.13;41.51;100972.13;4636736;30;20063;-64
2023/12/05 03:44:02;;;;;;;5.70;5.05;;;;;;;19.13;41.53;100969.44;4639564;30;20059;-64
2023/12/05 03:46:30;;;;;;;6.03;5.25;;;;;;;19.13;41.43;100977.50;4630460;30;20059;-60
2023/12/05 03:48:57;;;;;;;7.88;5.75;;;;;;;19.13;41.42;100963.22;4636556;30;20063;-60
2023/12/05 03:51:25;;;;;;;7.03;5.28;;;;;;;19.12;41.50;100973.13;4636289;30;20058;-60
2023/12/05 03:53:53;;;;;;;6.53;5.82;;;;;;;19.13;41.56;100966.75;4639400;30;20066;-60
2023/12/05 03:56:21;;;;;;;7.18;5.50;;;;;;;19.12;41.55;100970.44;4630690;30;20115;-64
2023/12/05 03:58:51;;;;;;;6.55;5.25;;;;;;;19.13;41.44;100965.91;4636001;30;20059;-64
2023/12/05 04:01:18;;;;;;;6.38;5.70;;;;;;;19.12;41.68;100978.47;4636210;30;20393;-64
2023/12/05 04:03:45;;;;;;;5.75;5.07;;;;;;;19.12;41.36;100970.44;4639403;30;20063;-64
2023/12/05 04:06:23;;;;;;;6.38;5.57;;;;;;;19.10;41.45;100967.00;4636231;30;20059;-64
2023/12/05 04:08:51;;;;;;;6.57;5.65;;;;;;;19.12;41.45;100974.91;4636094;30;20058;-64
2023/12/05 04:11:34;;;;;;;6.53;5.47;;;;;;;19.12;41.60;100970.44;4637301;30;20051;-64
2023/12/05 04:14:01;;;;;;;6.13;5.05;;;;;;;19.11;41.61;100966.00;4630285;30;20060;-64
2023/12/05 04:16:29;;;;;;;6.63;5.75;;;;;;;19.12;41.48;100972.22;4635689;30;20419;-64
2023/12/05 04:18:56;;;;;;;6.85;5.88;;;;;;;19.11;41.53;100971.38;4635793;30;20055;-64
2023/12/05 04:21:26;;;;;;;7.05;5.45;;;;;;;19.10;41.55;100961.63;4638554;30;20066;-64
2023/12/05 04:23:53;;;;;;;7.15;5.82;;;;;;;19.11;41.42;100957.13;4630432;30;20066;-64
2023/12/05 04:26:21;;;;;;;5.70;4.93;;;;;;;19.11;41.65;100957.13;4635751;30;20106;-60
2023/12/05 04:28:49;;;;;;;6.38;5.63;;;;;;;19.11;41.72;100959.81;4640789;30;20055;-60
2023/12/05 04:31:16;;;;;;;9.48;5.22;;;;;;;19.10;41.72;100963.47;4638735;30;20062;-60
2023/12/05 04:33:43;;;;;;;6.88;6.13;;;;;;;19.09;41.48;100959.94;4635472;30;20063;-60
2023/12/05 04:36:11;;;;;;;6.45;5.18;;;;;;;19.08;41.68;100955.56;4635626;30;20139;-64
2023/12/05 04:38:39;;;;;;;6.03;4.93;;;;;;;19.09;41.77;100954.56;4635267;30;20088;-64
2023/12/05 04:41:06;;;;;;;6.40;5.70;;;;;;;19.09;41.71;100959.09;4638661;30;20047;-64
2023/12/05 04:43:34;;;;;;;6.40;5.43;;;;;;;19.08;41.87;100958.25;4635692;30;20055;-64
2023/12/05 04:46:02;;;;;;;7.72;5.68;;;;;;;19.07;41.78;100951.16;4635316;30;20062;-60
2023/12/05 04:48:29;;;;;;;6.13;5.45;;;;;;;19.07;41.82;100953.84;4635376;30;20062;-60
2023/12/05 04:50:56;;;;;;;5.95;5.28;;;;;;;19.07;41.92;100953.84;4637941;30;20058;-60
2023/12/05 04:53:24;;;;;;;5.80;5.10;;;;;;;19.05;41.87;100945.06;4635276;30;20055;-60
2023/12/05 04:55:51;;;;;;;6.68;5.80;;;;;;;19.05;41.85;100950.44;4635753;30;20055;-64
2023/12/05 04:58:19;;;;;;;7.20;5.78;;;;;;;19.06;41.81;100952.13;4635025;30;20062;-64
2023/12/05 05:00:46;;;;;;;6.75;5.95;;;;;;;19.07;41.76;100950.31;4637685;30;20443;-64
2023/12/05 05:03:13;;;;;;;7.70;5.35;;;;;;;19.05;41.73;100954.97;4635237;30;20404;-64
2023/12/05 05:05:41;;;;;;;7.40;6.13;;;;;;;19.05;41.90;100950.44;4634802;30;20051;-60
2023/12/05 05:08:08;;;;;;;6.25;5.60;;;;;;;19.05;41.82;100950.44;4629510;30;20056;-60
2023/12/05 05:10:36;;;;;;;8.68;6.10;;;;;;;19.04;41.93;100943.38;4637689;30;20066;-60
2023/12/05 05:13:03;;;;;;;6.97;6.18;;;;;;;19.03;41.78;100942.50;4635191;30;20063;-60
2023/12/05 05:15:30;;;;;;;6.88;5.82;;;;;;;19.03;41.84;100945.19;4634767;30;20503;-62
2023/12/05 05:17:58;;;;;;;6.60;5.90;;;;;;;19.02;41.92;100938.13;4634888;30;20055;-60
2023/12/05 05:20:25;;;;;;;7.45;5.72;;;;;;;19.02;41.89;100943.50;4637247;30;20389;-60
2023/12/05 05:22:52;;;;;;;6.63;5.90;;;;;;;19.03;41.89;100936.28;4635160;30;20055;-60
2023/12/05 05:25:20;;;;;;;6.38;5.30;;;;;;;19.03;41.95;100939.81;4635043;30;20126;-60
2023/12/05 05:27:48;;;;;;;6.38;5.75;;;;;;;19.04;41.92;100940.69;4634990;30;20389;-60
2023/12/05 05:30:15;;;;;;;6.05;5.40;;;;;;;19.04;42.05;100946.06;4637817;30;20055;-60
2023/12/05 05:32:43;;;;;;;6.60;5.57;;;;;;;19.07;42.17;100939.56;4635226;30;20507;-60
2023/12/05 05:35:11;;;;;;;7.18;5.38;;;;;;;19.05;42.08;100946.91;4634810;30;20055;-60
2023/12/05 05:37:38;;;;;;;7.63;6.07;;;;;;;19.05;42.05;100955.81;4634466;30;20070;-60
2023/12/05 05:40:07;;;;;;;6.25;5.60;;;;;;;19.04;42.07;100954.13;4637976;30;20067;-60
2023/12/05 05:42:34;;;;;;;6.43;5.53;;;;;;;19.04;42.07;100946.06;4634675;30;20055;-60
2023/12/05 05:45:02;;;;;;;6.00;5.40;;;;;;;19.05;42.08;100955.81;4634554;30;20059;-60
2023/12/05 05:47:31;;;;;;;6.22;5.63;;;;;;;19.03;42.08;100947.03;4634478;30;20069;-64
2023/12/05 05:49:58;;;;;;;5.70;5.13;;;;;;;19.03;42.07;100949.69;4641062;30;20445;-64
2023/12/05 05:52:31;;;;;;;6.23;5.20;;;;;;;19.01;42.08;100939.09;4634718;30;20059;-64
2023/12/05 05:54:58;;;;;;;6.93;5.95;;;;;;;19.02;42.20;100935.44;4634256;30;20070;-64
2023/12/05 05:57:26;;;;;;;6.63;5.65;;;;;;;19.02;42.10;100931.91;4635293;30;20062;-64
2023/12/05 05:59:54;;;;;;;6.32;5.70;;;;;;;19.02;41.99;100934.59;4636293;30;20059;-60
2023/12/05 06:02:21;;;;;;;6.25;4.95;;;;;;;19.01;42.27;100933.75;4646652;30;20070;-60
2023/12/05 06:04:49;;;;;;;6.72;5.93;;;;;;;19.01;42.03;100933.75;4634494;30;20055;-60
2023/12/05 06:07:16;;;;;;;6.72;5.93;;;;;;;19.01;42.28;100936.44;4634993;30;20067;-64
2023/12/05 06:09:45;;;;;;;6.43;5.82;;;;;;;19.00;42.20;100925.84;4636888;30;20063;-64
2023/12/05 06:12:12;;;;;;;6.28;5.20;;;;;;;19.01;42.07;100928.38;4634614;30;20059;-64
2023/12/05 06:14:40;;;;;;;6.82;6.18;;;;;;;19.00;41.98;100926.69;4634459;30;20059;-64
2023/12/05 06:17:07;;;;;;;6.10;5.50;;;;;;;19.00;42.22;100923.16;4634613;30;20060;-64
2023/12/05 06:19:34;;;;;;;6.28;5.53;;;;;;;19.00;42.08;100925.84;4636473;30;20074;-64
2023/12/05 06:22:02;;;;;;;5.78;5.07;;;;;;;18.99;42.17;100924.94;4634458;30;20415;-64
2023/12/05 06:24:29;;;;;;;7.50;6.28;;;;;;;18.99;42.27;100921.41;4634472;30;20066;-64
2023/12/05 06:26:57;;;;;;;8.15;6.70;;;;;;;19.00;42.19;100921.31;4635456;30;20056;-64
2023/12/05 06:29:24;;;;;;;6.20;5.60;;;;;;;18.99;42.13;100921.41;4636961;30;20059;-63
2023/12/05 06:31:51;;;;;;;6.38;5.78;;;;;;;18.98;42.08;100917.03;4636408;30;20062;-63
2023/12/05 06:34:18;;;;;;;5.75;4.90;;;;;;;18.98;42.17;100914.34;4637692;30;20055;-60
2023/12/05 06:36:46;;;;;;;6.15;5.53;;;;;;;18.97;42.19;100909.97;4637786;30;20067;-63
2023/12/05 06:39:13;;;;;;;6.25;5.57;;;;;;;18.96;42.25;100910.97;4640154;30;20066;-64
2023/12/05 06:41:41;;;;;;;6.60;5.15;;;;;;;18.97;42.04;100909.97;4637453;30;20051;-64
2023/12/05 06:44:08;;;;;;;5.68;4.95;;;;;;;18.97;42.24;100905.47;4637549;30;20067;-64
2023/12/05 06:46:35;;;;;;;5.90;5.30;;;;;;;18.96;42.13;100902.91;4638075;30;20062;-60
2023/12/05 06:49:03;;;;;;;6.45;5.85;;;;;;;18.96;41.88;100902.91;4639706;30;20051;-60
2023/12/05 06:51:31;;;;;;;6.50;5.35;;;;;;;18.95;42.16;100915.44;4637139;30;20069;-60
2023/12/05 06:53:58;;;;;;;6.68;5.55;;;;;;;18.96;41.95;100919.00;4637577;30;20055;-60
2023/12/05 06:56:25;;;;;;;5.68;4.93;;;;;;;18.96;42.05;100908.28;4637659;30;20082;-64
2023/12/05 06:58:53;;;;;;;5.97;4.90;;;;;;;18.96;41.94;100913.66;4639160;30;20058;-64
2023/12/05 07:01:20;;;;;;;6.25;5.65;;;;;;;18.96;41.95;100905.59;4637263;30;20069;-64
2023/12/05 07:03:47;;;;;;;6.20;4.63;;;;;;;18.96;41.95;100908.28;4636965;30;20051;-64
2023/12/05 07:06:23;;;;;;;5.70;5.10;;;;;;;18.95;41.99;100907.41;4638802;30;20130;-64
2023/12/05 07:08:51;;;;;;;5.60;4.82;;;;;;;18.95;41.97;100906.56;4638492;30;20051;-64
2023/12/05 07:11:18;;;;;;;6.18;5.32;;;;;;;18.95;41.93;100901.19;4637081;30;20532;-64
2023/12/05 07:13:48;;;;;;;5.65;5.03;;;;;;;18.95;41.92;100906.56;4636878;30;20063;-64
2023/12/05 07:16:15;;;;;;;6.88;5.20;;;;;;;18.95;42.10;100904.72;4650790;30;20063;-60
2023/12/05 07:18:42;;;;;;;5.88;4.78;;;;;;;18.94;41.97;100907.53;4638374;30;20058;-60
2023/12/05 07:21:10;;;;;;;5.43;4.78;;;;;;;18.96;41.91;100908.28;4636856;30;20059;-60
2023/12/05 07:23:38;;;;;;;6.07;5.47;;;;;;;18.94;41.95;100905.72;4636855;30;20067;-60
2023/12/05 07:26:07;;;;;;;5.93;5.32;;;;;;;18.95;42.11;100909.25;4638577;30;20055;-64
2023/12/05 07:28:35;;;;;;;5.90;5.30;;;;;;;18.95;41.99;100903.88;4637283;30;20051;-64
2023/12/05 07:31:02;;;;;;;6.25;4.90;;;;;;;18.94;41.88;100907.53;4636951;30;20059;-64
2023/12/05 07:33:29;;;;;;;5.40;4.88;;;;;;;18.95;42.04;100909.25;4632501;30;20059;-64
2023/12/05 07:35:57;;;;;;;6.43;5.40;;;;;;;18.93;42.03;100906.69;4638470;30;20488;-60
2023/12/05 07:38:25;;;;;;;5.13;4.63;;;;;;;18.94;42.08;100910.22;4636930;30;20074;-60
2023/12/05 07:40:52;;;;;;;5.10;4.60;;;;;;;18.94;42.07;100904.88;4635888;30;20067;-60
2023/12/05 07:43:19;;;;;;;6.35;5.00;;;;;;;18.93;41.77;100901.34;4635841;30;20051;-60
2023/12/05 07:45:47;;;;;;;5.88;5.22;;;;;;;18.93;41.91;100903.16;4638154;30;20055;-64
2023/12/05 07:48:15;;;;;;;6.53;5.40;;;;;;;18.93;41.86;100908.53;4637146;30;20082;-64
2023/12/05 07:50:43;;;;;;;6.35;5.35;;;;;;;18.93;42.06;100906.69;4636091;30;20062;-65
2023/12/05 07:53:11;;;;;;;6.07;5.47;;;;;;;18.92;42.03;100904.13;4636086;30;20052;-64
2023/12/05 07:55:39;;;;;;;5.63;4.60;;;;;;;18.92;41.91;100893.38;4638363;30;20361;-61
2023/12/05 07:58:06;;;;;;;6.18;5.40;;;;;;;18.92;41.98;100896.06;4637259;30;20059;-61
2023/12/05 08:00:34;;;;;;;5.90;5.30;;;;;;;18.90;41.94;100888.16;4636211;30;20051;-60
2023/12/05 08:03:01;;;;;;;7.22;5.63;;;;;;;18.91;41.73;100889.00;4636038;30;20052;-61
2023/12/05 08:05:29;;;;;;;5.15;4.65;;;;;;;18.91;41.85;100887.19;4638088;30;20519;-63
2023/12/05 08:07:56;;;;;;;6.57;5.68;;;;;;;18.89;41.78;100883.78;4636631;30;20059;-60
2023/12/05 08:10:24;;;;;;;8.65;5.82;;;;;;;18.90;41.79;100879.28;4636147;30;20062;-60
2023/12/05 08:12:52;;;;;;;7.18;5.43;;;;;;;18.90;41.94;100876.59;4636003;30;20060;-60
2023/12/05 08:15:19;;;;;;;6.32;5.60;;;;;;;18.90;41.84;100876.59;4638221;30;20062;-60
2023/12/05 08:17:48;;;;;;;6.95;6.20;;;;;;;18.89;41.65;100865.00;4636370;30;20448;-64
2023/12/05 08:20:16;;;;;;;6.18;5.57;;;;;;;18.91;41.71;100868.41;4633475;30;20059;-66
2023/12/05 08:22:43;;;;;;;7.90;5.95;;;;;;;18.93;42.00;100873.66;4632059;30;20062;-66
2023/12/05 08:25:11;;;;;;;7.95;5.90;;;;;;;18.95;42.41;100877.03;4650515;30;20063;-60
2023/12/05 08:27:39;;;;;;;8.23;5.85;;;;;;;19.00;42.44;100878.38;4636851;30;20051;-63
2023/12/05 08:30:07;;;;;;;5.68;5.05;;;;;;;19.07;42.36;100880.53;4650862;30;20066;-65
2023/12/05 08:32:34;;;;;;;5.28;4.78;;;;;;;19.11;42.64;100880.16;4627719;30;20398;-66
2023/12/05 08:35:02;;;;;;;6.78;6.03;;;;;;;19.14;42.46;100882.56;4637737;30;20503;-66
2023/12/05 08:37:31;;;;;;;6.65;5.72;;;;;;;19.18;42.52;100886.72;4635307;30;20085;-63
2023/12/05 08:39:59;;;;;;;6.10;5.15;;;;;;;19.19;42.54;100877.66;4647434;30;20063;-69
2023/12/05 08:42:29;;;;;;;7.85;5.90;;;;;;;19.23;42.62;100876.44;4633964;30;20058;-65
2023/12/05 08:44:56;;;;;;;6.78;5.38;;;;;;;19.26;42.30;100869.97;4638299;30;20081;-68
2023/12/05 08:47:24;;;;;;;7.85;6.88;;;;;;;19.27;42.35;100882.38;4630073;30;20070;-63
2023/12/05 08:49:51;;;;;;;6.30;5.45;;;;;;;19.30;42.06;100881.28;4635087;30;20602;-66
2023/12/05 08:52:19;;;;;;;5.88;5.28;;;;;;;19.32;41.87;100882.00;4634900;30;20055;-67
2023/12/05 08:54:47;;;;;;;5.95;5.10;;;;;;;19.32;41.71;100887.38;4637134;30;20062;-64
2023/12/05 08:57:14;;;;;;;6.65;5.25;;;;;;;19.33;41.45;100889.09;4635227;30;20073;-63
2023/12/05 08:59:42;;;;;;;7.70;5.47;;;;;;;19.35;41.64;100879.06;4637801;30;20408;-58
2023/12/05 09:02:10;;;;;;;9.75;5.72;;;;;;;19.35;41.60;100877.22;4634394;30;20043;-61
2023/12/05 09:04:37;;;;;;;6.53;5.43;;;;;;;19.35;41.72;100876.38;4634318;30;20062;-60
2023/12/05 09:07:05;;;;;;;6.03;5.30;;;;;;;19.36;41.59;100876.22;4640936;30;20058;-61
2023/12/05 09:09:33;;;;;;;5.65;5.10;;;;;;;19.39;41.52;100888.56;4634722;30;20062;-60
2023/12/05 09:12:01;;;;;;;6.60;5.07;;;;;;;19.37;41.44;100875.28;4634559;30;20061;-59
2023/12/05 09:14:28;;;;;;;6.80;5.10;;;;;;;19.39;41.50;100880.50;4637754;30;20059;-58
2023/12/05 09:16:55;;;;;;;5.72;4.88;;;;;;;19.38;41.74;100885.03;4632607;30;20063;-60
2023/12/05 09:19:23;;;;;;;6.20;5.60;;;;;;;19.38;41.51;100882.34;4634630;30;20059;-62
2023/12/05 09:21:52;;;;;;;6.50;5.47;;;;;;;19.37;41.37;100886.00;4634517;30;20051;-65
2023/12/05 09:24:19;;;;;;;6.25;5.00;;;;;;;19.39;41.26;100886.72;4637517;30;20399;-60
2023/12/05 09:26:47;;;;;;;5.30;4.75;;;;;;;19.38;41.44;100881.50;4634090;30;20104;-58
2023/12/05 09:29:15;;;;;;;5.82;4.90;;;;;;;19.40;41.50;100876.81;4634577;30;20055;-57
2023/12/05 09:31:42;;;;;;;6.43;5.03;;;;;;;19.37;41.35;100888.69;4634142;30;20067;-58
2023/12/05 09:34:09;;;;;;;5.25;4.40;;;;;;;19.38;41.38;100893.06;4636271;30;20062;-57
2023/12/05 09:36:37;;;;;;;5.85;5.25;;;;;;;19.39;40.91;100893.91;4634326;30;20605;-58
2023/12/05 09:39:04;;;;;;;7.78;6.95;;;;;;;19.36;39.78;100886.97;4634816;30;20055;-57
2023/12/05 09:41:40;;;;;;;8.02;7.22;;;;;;;19.33;39.61;100881.03;4634531;30;20055;-59
2023/12/05 09:44:08;;;;;;;7.35;6.57;;;;;;;19.34;39.71;100888.09;4639066;30;20055;-58
2023/12/05 09:46:39;;;;;;;6.47;5.72;;;;;;;19.32;39.89;100884.69;4634252;30;20062;-62
2023/12/05 09:49:17;;;;;;;7.80;5.35;;;;;;;19.33;40.29;100887.25;4630142;30;20055;-63
2023/12/05 09:51:46;;;;;;;5.85;5.25;;;;;;;19.31;40.57;100883.81;4634184;30;20063;-61
2023/12/05 09:54:14;;;;;;;6.38;5.78;;;;;;;19.25;40.18;100882.53;4640850;30;20051;-60
2023/12/05 09:56:42;;;;;;;6.70;5.53;;;;;;;19.19;40.73;100876.81;4634563;30;20066;-60
2023/12/05 09:59:10;;;;;;;5.50;5.00;;;;;;;19.17;41.00;100873.44;4639870;30;20059;-58
2023/12/05 10:01:39;;;;;;;5.78;5.28;;;;;;;19.18;40.92;100864.38;4635131;30;20066;-56
2023/12/05 10:04:10;;;;;;;6.40;5.28;;;;;;;19.21;40.82;100859.63;4628362;30;20058;-58
2023/12/05 10:06:39;;;;;;;5.47;4.97;;;;;;;19.23;40.76;100846.06;4635900;30;20062;-58
2023/12/05 10:09:09;;;;;;;5.65;4.88;;;;;;;19.26;41.00;100849.34;4636875;30;20063;-62
2023/12/05 10:11:38;;;;;;;6.68;5.35;;;;;;;19.28;40.80;100838.44;4639594;30;20055;-64
2023/12/05 10:14:06;;;;;;;5.90;4.95;;;;;;;19.30;40.83;100841.03;4637551;30;20519;-58
2023/12/05 10:16:34;;;;;;;5.82;5.05;;;;;;;19.30;40.76;100832.97;4637305;30;20154;-63
2023/12/05 10:19:02;;;;;;;5.05;4.50;;;;;;;19.31;40.67;100829.31;4641363;30;20070;-62
2023/12/05 10:21:29;;;;;;;5.03;4.53;;;;;;;19.32;40.63;100822.94;4639296;30;20065;-65
2023/12/05 10:23:58;;;;;;;5.25;4.75;;;;;;;19.32;40.48;100812.19;4637353;30;20055;-68
2023/12/05 10:26:25;;;;;;;5.85;5.15;;;;;;;19.33;40.47;100809.41;4637267;30;20063;-59
2023/12/05 10:28:56;;;;;;;5.38;4.88;;;;;;;19.35;40.60;100806.56;4634773;30;20416;-58
2023/12/05 10:31:23;;;;;;;6.10;5.13;;;;;;;19.35;40.60;100806.56;4639014;30;20055;-62
2023/12/05 10:34:03;;;;;;;5.72;5.22;;;;;;;19.34;40.46;100804.88;4637349;30;20059;-61
2023/12/05 10:36:31;;;;;;;5.60;5.07;;;;;;;19.34;40.39;100795.00;4633692;30;20504;-63
2023/12/05 10:38:58;;;;;;;5.40;4.63;;;;;;;19.36;40.60;100794.84;4642948;30;20476;-68
2023/12/05 10:41:29;;;;;;;6.03;4.93;;;;;;;19.36;40.59;100790.31;4642491;30;20086;-61
2023/12/05 10:43:57;;;;;;;6.10;4.70;;;;;;;19.35;40.83;100783.25;4636289;30;20063;-56
2023/12/05 10:46:27;;;;;;;5.57;4.90;;;;;;;19.35;41.06;100788.63;4637407;30;20420;-59
2023/12/05 10:48:55;;;;;;;5.32;4.82;;;;;;;19.35;40.82;100783.25;4641651;30;20062;-58
2023/12/05 10:51:27;;;;;;;5.88;4.72;;;;;;;19.36;40.42;100776.06;4640428;30;20153;-58
2023/12/05 10:53:55;;;;;;;4.97;4.47;;;;;;;19.35;40.54;100775.22;4638052;30;20388;-58
2023/12/05 10:56:23;;;;;;;4.45;4.03;;;;;;;19.35;40.48;100775.22;4637912;30;20076;-60
2023/12/05 10:58:52;;;;;;;5.28;4.78;;;;;;;19.35;40.46;100780.59;4638776;30;20082;-62
2023/12/05 11:01:21;;;;;;;4.88;4.38;;;;;;;19.34;39.97;100781.56;4636739;30;20063;-65
2023/12/05 11:03:51;;;;;;;5.40;4.40;;;;;;;19.35;40.14;100769.84;4639641;30;20496;-64
2023/12/05 11:06:20;;;;;;;6.22;4.57;;;;;;;19.35;40.27;100769.00;4637736;30;20059;-66
2023/12/05 11:08:47;;;;;;;7.85;5.15;;;;;;;19.34;40.14;100767.31;4649243;30;20074;-66
2023/12/05 11:11:16;;;;;;;5.55;4.38;;;;;;;19.33;40.19;100769.13;4637117;30;20068;-64
2023/12/05 11:13:47;;;;;;;5.93;4.70;;;;;;;19.33;39.91;100762.94;4640054;30;20424;-64
2023/12/05 11:16:23;;;;;;;6.55;4.55;;;;;;;19.34;39.79;100757.41;4638714;30;20055;-57
2023/12/05 11:19:09;;;;;;;4.82;3.78;;;;;;;19.34;40.21;100756.56;4632346;30;20518;-55
2023/12/05 11:22:01;;;;;;;6.55;4.70;;;;;;;19.33;40.10;100755.72;4648601;30;20063;-57
2023/12/05 11:24:55;;;;;;;5.15;4.43;;;;;;;19.32;39.21;100755.84;4641320;30;20058;-65
2023/12/05 11:27:32;;;;;;;7.97;7.22;;;;;;;19.10;37.29;100752.34;4636317;30;20415;-61
2023/12/05 11:30:36;;;;;;;8.32;6.93;;;;;;;18.94;37.43;100749.28;4638281;30;20052;-67
2023/12/05 11:33:37;;;;;;;6.93;6.22;;;;;;;18.89;38.11;100738.09;4632551;30;20134;-59